createdAt,value
2019-04-05T00:01:56.428Z,100177.20
2019-04-05T00:04:24.635Z,100175.80
2019-04-05T00:06:52.834Z,100164.56
2019-04-05T00:09:21.046Z,100171.48
2019-04-05T00:11:49.534Z,100168.45
2019-04-05T00:14:17.744Z,100180.04
2019-04-05T00:16:46.657Z,100176.20
2019-04-05T00:19:14.884Z,100163.59
2019-04-05T00:21:43.088Z,100156.52
2019-04-05T00:24:11.282Z,100164.10
2019-04-05T00:26:39.504Z,100164.68
2019-04-05T00:29:07.705Z,100162.59
2019-04-05T00:31:35.914Z,100167.67
2019-04-05T00:34:04.114Z,100167.33
2019-04-05T00:36:32.335Z,100168.69
2019-04-05T00:39:00.542Z,100173.74
2019-04-05T00:41:28.740Z,100172.23
2019-04-05T00:43:56.960Z,100175.41
2019-04-05T00:46:25.159Z,100176.19
2019-04-05T00:48:53.375Z,100177.16
2019-04-05T00:51:21.644Z,100173.74
2019-04-05T00:53:49.873Z,100177.47
2019-04-05T00:56:18.077Z,100174.98
2019-04-05T00:58:46.288Z,100182.44
2019-04-05T01:01:14.510Z,100176.36
2019-04-05T01:03:42.713Z,100181.86
2019-04-05T01:06:10.923Z,100182.21
2019-04-05T01:08:39.125Z,100180.50
2019-04-05T01:11:07.345Z,100183.72
2019-04-05T01:13:35.550Z,100184.98
2019-04-05T01:16:03.778Z,100180.59
2019-04-05T01:18:31.989Z,100182.97
2019-04-05T01:21:02.439Z,100181.91
2019-04-05T01:23:30.633Z,100184.08
2019-04-05T01:25:58.916Z,100175.98
2019-04-05T01:28:27.122Z,100172.36
2019-04-05T01:30:55.338Z,100172.36
2019-04-05T01:33:23.540Z,100187.31
2019-04-05T01:35:51.826Z,100183.73
2019-04-05T01:38:20.024Z,100187.47
2019-04-05T01:40:48.236Z,100186.46
2019-04-05T01:43:16.454Z,100192.25
2019-04-05T01:45:53.725Z,100199.75
2019-04-05T01:48:16.805Z,100195.32
2019-04-05T01:50:45.016Z,100177.59
2019-04-05T01:53:13.225Z,100175.08
2019-04-05T01:55:41.452Z,100177.59
2019-04-05T01:58:09.652Z,100176.16
2019-04-05T02:00:37.882Z,100173.73
2019-04-05T02:03:06.083Z,100170.02
2019-04-05T02:05:34.305Z,100168.09
2019-04-05T02:08:02.511Z,100168.80
2019-04-05T02:10:30.734Z,100175.75
2019-04-05T02:12:58.942Z,100186.33
2019-04-05T02:15:28.384Z,100182.69
2019-04-05T02:17:56.770Z,100184.46
2019-04-05T02:20:24.975Z,100181.39
2019-04-05T02:22:53.213Z,100176.41
2019-04-05T02:25:21.415Z,100175.34
2019-04-05T02:27:49.879Z,100187.48
2019-04-05T02:30:19.710Z,100184.41
2019-04-05T02:32:47.923Z,100187.08
2019-04-05T02:35:16.129Z,100186.73
2019-04-05T02:37:44.354Z,100181.34
2019-04-05T02:40:14.867Z,100183.66
2019-04-05T02:42:43.066Z,100180.28
2019-04-05T02:45:11.263Z,100173.84
2019-04-05T02:47:40.718Z,100160.10
2019-04-05T02:50:08.919Z,100165.39
2019-04-05T02:52:37.135Z,100167.45
2019-04-05T02:55:05.402Z,100168.90
2019-04-05T02:57:33.615Z,100149.44
2019-04-05T03:00:01.959Z,100160.59
2019-04-05T03:02:30.198Z,100166.89
2019-04-05T03:04:58.404Z,100173.33
2019-04-05T03:07:26.879Z,100181.75
2019-04-05T03:09:55.241Z,100205.00
2019-04-05T03:12:23.462Z,100217.73
2019-04-05T03:14:51.665Z,100184.86
2019-04-05T03:17:19.868Z,100191.52
2019-04-05T03:19:48.070Z,100207.67
2019-04-05T03:22:16.285Z,100212.90
2019-04-05T03:24:44.658Z,100185.66
2019-04-05T03:27:15.009Z,100193.23
2019-04-05T03:29:43.213Z,100196.80
2019-04-05T03:32:11.455Z,100213.41
2019-04-05T03:34:39.866Z,100211.84
2019-04-05T03:37:08.110Z,100196.80
2019-04-05T03:39:36.380Z,100184.07
2019-04-05T03:42:04.766Z,100196.80
2019-04-05T03:44:32.965Z,100192.87
2019-04-05T03:47:01.190Z,100192.87
2019-04-05T03:49:29.396Z,100192.95
2019-04-05T03:51:57.605Z,100182.73
2019-04-05T03:54:25.868Z,100178.51
2019-04-05T03:56:54.029Z,100181.06
2019-04-05T03:59:22.239Z,100167.28
2019-04-05T04:01:52.071Z,100164.20
2019-04-05T04:04:20.290Z,100173.56
2019-04-05T04:06:48.573Z,100174.79
2019-04-05T04:09:16.808Z,100168.59
2019-04-05T04:11:45.004Z,100167.28
2019-04-05T04:14:13.486Z,100165.44
2019-04-05T04:16:41.679Z,100170.07
2019-04-05T04:19:09.901Z,100169.16
2019-04-05T04:21:50.255Z,100177.16
2019-04-05T04:24:18.739Z,100177.16
2019-04-05T04:26:46.938Z,100181.23
2019-04-05T04:29:15.161Z,100181.09
2019-04-05T04:31:43.366Z,100181.23
2019-04-05T04:34:11.590Z,100188.94
2019-04-05T04:36:39.799Z,100187.11
2019-04-05T04:39:08.021Z,100197.88
2019-04-05T04:41:36.232Z,100195.66
2019-04-05T04:44:04.439Z,100207.02
2019-04-05T04:46:32.984Z,100199.11
2019-04-05T04:49:01.203Z,100204.08
2019-04-05T04:51:29.405Z,100204.08
2019-04-05T04:53:57.618Z,100205.73
2019-04-05T04:56:25.820Z,100204.92
2019-04-05T04:58:54.030Z,100196.34
2019-04-05T05:01:22.372Z,100205.38
2019-04-05T05:03:50.586Z,100214.23
2019-04-05T05:06:18.785Z,100237.23
2019-04-05T05:08:47.017Z,100248.95
2019-04-05T05:11:15.308Z,100263.11
2019-04-05T05:13:43.495Z,100259.22
2019-04-05T05:16:12.175Z,100239.91
2019-04-05T05:18:40.385Z,100253.22
2019-04-05T05:21:08.602Z,100269.97
2019-04-05T05:23:36.808Z,100277.59
2019-04-05T05:26:05.028Z,100281.47
2019-04-05T05:28:33.236Z,100273.55
2019-04-05T05:31:01.454Z,100273.55
2019-04-05T05:33:29.652Z,100278.55
2019-04-05T05:35:57.863Z,100279.11
2019-04-05T05:38:26.063Z,100284.78
2019-04-05T05:40:54.278Z,100282.62
2019-04-05T05:43:23.996Z,100271.25
2019-04-05T05:45:52.273Z,100265.72
2019-04-05T05:48:20.483Z,100269.30
2019-04-05T05:50:48.771Z,100269.30
2019-04-05T05:53:16.969Z,100273.73
2019-04-05T05:55:45.194Z,100273.73
2019-04-05T05:58:13.394Z,100279.91
2019-04-05T06:00:41.617Z,100282.59
2019-04-05T06:03:12.031Z,100281.88
2019-04-05T06:05:40.240Z,100275.73
2019-04-05T06:08:08.449Z,100269.43
2019-04-05T06:10:36.671Z,100281.22
2019-04-05T06:13:07.214Z,100286.30
2019-04-05T06:15:37.415Z,100284.80
2019-04-05T06:18:05.211Z,100284.80
2019-04-05T06:20:33.433Z,100284.43
2019-04-05T06:23:01.638Z,100291.48
2019-04-05T06:25:29.850Z,100295.11
2019-04-05T06:27:59.770Z,100289.59
2019-04-05T06:30:28.851Z,100296.80
2019-04-05T06:32:57.246Z,100295.78
2019-04-05T06:35:25.465Z,100290.77
2019-04-05T06:37:53.671Z,100290.81
2019-04-05T06:40:21.883Z,100302.48
2019-04-05T06:42:50.097Z,100306.30
2019-04-05T06:45:18.297Z,100316.16
2019-04-05T06:47:46.524Z,100310.27
2019-04-05T06:50:14.731Z,100331.48
2019-04-05T06:52:42.952Z,100329.69
2019-04-05T06:55:11.155Z,100330.12
2019-04-05T06:57:39.365Z,100332.27
2019-04-05T07:00:07.575Z,100330.35
2019-04-05T07:02:35.788Z,100321.09
2019-04-05T07:05:05.730Z,100332.37
2019-04-05T07:07:33.943Z,100327.53
2019-04-05T07:10:02.142Z,100339.84
2019-04-05T07:12:30.592Z,100338.36
2019-04-05T07:14:58.807Z,100338.00
2019-04-05T07:17:27.006Z,100333.83
2019-04-05T07:19:55.217Z,100336.61
2019-04-05T07:22:36.910Z,100344.02
2019-04-05T07:24:54.094Z,100340.30
2019-04-05T07:27:22.288Z,100344.91
2019-04-05T07:29:50.503Z,100351.03
2019-04-05T07:32:18.705Z,100352.11
2019-04-05T07:34:46.928Z,100354.05
2019-04-05T07:37:15.121Z,100357.85
2019-04-05T07:39:43.337Z,100357.25
2019-04-05T07:42:11.536Z,100349.95
2019-04-05T07:44:39.762Z,100350.88
2019-04-05T07:47:07.969Z,100346.95
2019-04-05T07:49:36.174Z,100341.81
2019-04-05T07:52:04.386Z,100350.88
2019-04-05T07:54:32.585Z,100352.13
2019-04-05T07:57:00.803Z,100349.77
2019-04-05T07:59:29.008Z,100343.15
2019-04-05T08:01:57.231Z,100339.34
2019-04-05T08:04:25.463Z,100334.61
2019-04-05T08:06:53.890Z,100328.81
2019-04-05T08:09:22.365Z,100337.05
2019-04-05T08:11:50.819Z,100342.91
2019-04-05T08:14:19.046Z,100349.45
2019-04-05T08:16:47.270Z,100348.09
2019-04-05T08:19:15.486Z,100351.84
2019-04-05T08:21:43.719Z,100343.81
2019-04-05T08:24:12.229Z,100347.78
2019-04-05T08:26:40.684Z,100363.00
2019-04-05T08:29:08.892Z,100362.52
2019-04-05T08:31:37.137Z,100372.14
2019-04-05T08:34:05.360Z,100374.91
2019-04-05T08:36:33.562Z,100375.08
2019-04-05T08:39:02.092Z,100377.14
2019-04-05T08:41:31.832Z,100380.05
2019-04-05T08:44:00.035Z,100384.83
2019-04-05T08:46:28.256Z,100374.93
2019-04-05T08:48:56.457Z,100372.19
2019-04-05T08:51:24.730Z,100375.78
2019-04-05T08:53:52.883Z,100379.70
2019-04-05T08:56:21.093Z,100372.27
2019-04-05T08:58:49.317Z,100380.81
2019-04-05T09:01:17.527Z,100383.36
2019-04-05T09:03:45.746Z,100382.02
2019-04-05T09:06:13.952Z,100386.48
2019-04-05T09:08:42.649Z,100387.86
2019-04-05T09:11:10.849Z,100387.84
2019-04-05T09:13:39.090Z,100380.89
2019-04-05T09:16:07.292Z,100381.72
2019-04-05T09:18:35.526Z,100375.69
2019-04-05T09:21:03.726Z,100377.48
2019-04-05T09:23:31.927Z,100375.33
2019-04-05T09:26:00.148Z,100375.77
2019-04-05T09:28:28.349Z,100379.89
2019-04-05T09:30:56.568Z,100376.14
2019-04-05T09:33:24.778Z,100380.03
2019-04-05T09:35:52.998Z,100380.69
2019-04-05T09:38:21.203Z,100375.72
2019-04-05T09:40:49.425Z,100376.61
2019-04-05T09:43:17.704Z,100378.92
2019-04-05T09:45:47.543Z,100371.92
2019-04-05T09:48:15.759Z,100377.16
2019-04-05T09:50:44.972Z,100372.21
2019-04-05T09:53:13.195Z,100378.97
2019-04-05T09:55:41.402Z,100377.80
2019-04-05T09:58:10.278Z,100379.52
2019-04-05T10:00:39.079Z,100375.92
2019-04-05T10:03:07.307Z,100375.94
2019-04-05T10:05:35.518Z,100381.11
2019-04-05T10:08:04.201Z,100392.78
2019-04-05T10:10:32.413Z,100384.03
2019-04-05T10:13:00.620Z,100384.75
2019-04-05T10:15:28.840Z,100388.63
2019-04-05T10:17:57.046Z,100394.78
2019-04-05T10:20:25.345Z,100395.47
2019-04-05T10:22:53.555Z,100400.00
2019-04-05T10:25:21.782Z,100390.84
2019-04-05T10:27:49.989Z,100387.95
2019-04-05T10:30:18.218Z,100399.48
2019-04-05T10:32:46.559Z,100393.46
2019-04-05T10:35:14.729Z,100397.20
2019-04-05T10:37:42.942Z,100392.55
2019-04-05T10:40:11.141Z,100390.00
2019-04-05T10:42:40.732Z,100385.01
2019-04-05T10:45:09.880Z,100390.16
2019-04-05T10:47:38.098Z,100390.70
2019-04-05T10:50:07.946Z,100379.55
2019-04-05T10:52:36.239Z,100388.25
2019-04-05T10:55:04.780Z,100382.50
2019-04-05T10:57:32.998Z,100383.48
2019-04-05T11:00:01.198Z,100383.02
2019-04-05T11:02:29.415Z,100384.20
2019-04-05T11:04:57.624Z,100387.28
2019-04-05T11:07:25.834Z,100381.77
2019-04-05T11:09:54.055Z,100376.37
2019-04-05T11:12:22.261Z,100376.63
2019-04-05T11:14:50.480Z,100374.17
2019-04-05T11:17:18.689Z,100369.15
2019-04-05T11:19:48.369Z,100371.17
2019-04-05T11:22:20.094Z,100378.25
2019-04-05T11:24:46.509Z,100372.41
2019-04-05T11:27:14.712Z,100373.71
2019-04-05T11:29:42.935Z,100371.28
2019-04-05T11:32:11.137Z,100372.67
2019-04-05T11:34:39.365Z,100370.59
2019-04-05T11:37:07.572Z,100377.30
2019-04-05T11:39:35.791Z,100382.30
2019-04-05T11:42:04.010Z,100386.05
2019-04-05T11:44:32.392Z,100382.83
2019-04-05T11:47:00.599Z,100385.59
2019-04-05T11:49:28.832Z,100386.05
2019-04-05T11:51:57.030Z,100385.27
2019-04-05T11:54:25.248Z,100388.03
2019-04-05T11:56:53.450Z,100387.94
2019-04-05T11:59:21.671Z,100392.05
2019-04-05T12:01:54.460Z,100393.69
2019-04-05T12:04:22.680Z,100392.63
2019-04-05T12:06:52.122Z,100394.73
2019-04-05T12:09:20.784Z,100392.51
2019-04-05T12:11:48.998Z,100392.32
2019-04-05T12:14:29.608Z,100387.53
2019-04-05T12:16:47.132Z,100392.30
2019-04-05T12:19:15.352Z,100395.20
2019-04-05T12:21:43.554Z,100396.58
2019-04-05T12:24:11.784Z,100393.46
2019-04-05T12:26:42.555Z,100398.48
2019-04-05T12:29:09.924Z,100394.87
2019-04-05T12:31:38.161Z,100391.85
2019-04-05T12:34:06.368Z,100391.53
2019-04-05T12:36:34.600Z,100387.59
2019-04-05T12:39:04.745Z,100392.80
2019-04-05T12:41:32.733Z,100387.39
2019-04-05T12:44:00.939Z,100392.55
2019-04-05T12:46:30.802Z,100391.41
2019-04-05T12:48:59.000Z,100384.94
2019-04-05T12:51:27.219Z,100384.06
2019-04-05T12:53:56.859Z,100380.66
2019-04-05T12:56:26.565Z,100390.09
2019-04-05T12:58:56.060Z,100386.25
2019-04-05T13:01:24.852Z,100390.02
2019-04-05T13:03:54.452Z,100392.25
2019-04-05T13:06:23.721Z,100390.02
2019-04-05T13:08:53.755Z,100391.73
2019-04-05T13:11:25.889Z,100393.64
2019-04-05T13:13:51.816Z,100386.43
2019-04-05T13:16:20.026Z,100384.39
2019-04-05T13:18:48.251Z,100382.20
2019-04-05T13:21:16.455Z,100383.89
2019-04-05T13:23:45.140Z,100379.67
2019-04-05T13:26:13.378Z,100381.45
2019-04-05T13:28:41.571Z,100377.77
2019-04-05T13:31:09.782Z,100378.47
2019-04-05T13:33:38.006Z,100380.84
2019-04-05T13:36:08.464Z,100384.07
2019-04-05T13:38:36.172Z,100381.33
2019-04-05T13:41:04.380Z,100385.05
2019-04-05T13:43:32.800Z,100387.20
2019-04-05T13:46:00.984Z,100379.64
2019-04-05T13:48:29.232Z,100389.20
2019-04-05T13:50:57.441Z,100389.42
2019-04-05T13:53:25.665Z,100386.55
2019-04-05T13:55:53.867Z,100388.81
2019-04-05T13:58:22.085Z,100401.25
2019-04-05T14:00:50.307Z,100392.31
2019-04-05T14:03:20.440Z,100393.53
2019-04-05T14:05:49.987Z,100396.37
2019-04-05T14:08:18.811Z,100396.94
2019-04-05T14:10:47.024Z,100388.63
2019-04-05T14:13:15.246Z,100387.76
2019-04-05T14:15:43.454Z,100392.63
2019-04-05T14:18:14.514Z,100390.93
2019-04-05T14:20:41.599Z,100395.31
2019-04-05T14:23:09.821Z,100393.91
2019-04-05T14:25:38.027Z,100398.59
2019-04-05T14:28:06.247Z,100402.75
2019-04-05T14:30:34.456Z,100403.72
2019-04-05T14:33:02.943Z,100406.39
2019-04-05T14:35:31.152Z,100406.07
2019-04-05T14:38:00.839Z,100406.27
2019-04-05T14:40:32.837Z,100402.85
2019-04-05T14:42:58.986Z,100406.78
2019-04-05T14:45:27.195Z,100404.55
2019-04-05T14:47:57.619Z,100414.16
2019-04-05T14:50:25.352Z,100410.55
2019-04-05T14:52:53.558Z,100412.89
2019-04-05T14:55:21.769Z,100401.48
2019-04-05T14:57:49.994Z,100409.89
2019-04-05T15:00:18.275Z,100410.08
2019-04-05T15:02:46.484Z,100402.65
2019-04-05T15:05:14.701Z,100404.34
2019-04-05T15:07:42.917Z,100403.09
2019-04-05T15:10:11.135Z,100392.42
2019-04-05T15:12:39.344Z,100404.14
2019-04-05T15:15:07.842Z,100405.02
2019-04-05T15:17:47.297Z,100400.42
2019-04-05T15:20:08.651Z,100396.58
2019-04-05T15:22:37.331Z,100397.09
2019-04-05T15:25:06.626Z,100391.12
2019-04-05T15:27:34.837Z,100396.13
2019-04-05T15:30:03.096Z,100397.39
2019-04-05T15:32:32.744Z,100399.06
2019-04-05T15:35:02.090Z,100397.78
2019-04-05T15:37:32.483Z,100405.30
2019-04-05T15:40:01.885Z,100393.61
2019-04-05T15:42:30.083Z,100394.25
2019-04-05T15:44:58.308Z,100397.50
2019-04-05T15:47:26.834Z,100395.02
2019-04-05T15:49:55.059Z,100399.76
2019-04-05T15:52:23.261Z,100398.97
2019-04-05T15:54:51.478Z,100403.42
2019-04-05T15:57:19.690Z,100398.70
2019-04-05T15:59:48.663Z,100399.18
2019-04-05T16:02:17.314Z,100400.22
2019-04-05T16:04:45.534Z,100400.06
2019-04-05T16:07:13.739Z,100395.66
2019-04-05T16:09:41.970Z,100395.98
2019-04-05T16:12:10.182Z,100400.26
2019-04-05T16:14:38.401Z,100403.11
2019-04-05T16:17:06.610Z,100403.77
2019-04-05T16:19:34.833Z,100401.52
2019-04-05T16:22:03.294Z,100409.87
2019-04-05T16:24:31.515Z,100409.67
2019-04-05T16:26:59.719Z,100420.25
2019-04-05T16:29:27.940Z,100419.97
2019-04-05T16:31:56.148Z,100420.52
2019-04-05T16:34:24.364Z,100430.08
2019-04-05T16:36:52.561Z,100433.04
2019-04-05T16:39:20.787Z,100436.97
2019-04-05T16:41:48.973Z,100432.39
2019-04-05T16:44:17.185Z,100431.73
2019-04-05T16:46:45.387Z,100429.22
2019-04-05T16:49:14.265Z,100429.65
2019-04-05T16:51:42.471Z,100429.39
2019-04-05T16:54:10.691Z,100435.33
2019-04-05T16:56:38.904Z,100439.80
2019-04-05T16:59:07.208Z,100442.64
2019-04-05T17:01:35.420Z,100441.89
2019-04-05T17:04:03.903Z,100438.87
2019-04-05T17:06:32.105Z,100449.58
2019-04-05T17:09:00.310Z,100456.00
2019-04-05T17:11:28.536Z,100455.23
2019-04-05T17:13:59.383Z,100449.31
2019-04-05T17:16:26.691Z,100453.83
2019-04-05T17:18:56.125Z,100447.92
2019-04-05T17:21:25.979Z,100445.95
2019-04-05T17:23:54.192Z,100453.22
2019-04-05T17:26:22.412Z,100459.84
2019-04-05T17:28:50.623Z,100462.12
2019-04-05T17:31:18.838Z,100463.16
2019-04-05T17:33:47.055Z,100464.39
2019-04-05T17:36:15.275Z,100464.77
2019-04-05T17:38:43.484Z,100475.13
2019-04-05T17:41:11.708Z,100470.52
2019-04-05T17:43:39.919Z,100472.77
2019-04-05T17:46:09.614Z,100471.14
2019-04-05T17:48:37.823Z,100470.49
2019-04-05T17:51:06.031Z,100475.03
2019-04-05T17:53:34.253Z,100476.78
2019-04-05T17:56:02.467Z,100476.16
2019-04-05T17:58:31.172Z,100478.91
2019-04-05T18:00:59.379Z,100488.60
2019-04-05T18:03:27.594Z,100479.88
2019-04-05T18:05:55.808Z,100477.50
2019-04-05T18:08:24.014Z,100481.14
2019-04-05T18:10:52.231Z,100484.59
2019-04-05T18:13:20.447Z,100487.15
2019-04-05T18:15:52.661Z,100490.08
2019-04-05T18:18:18.614Z,100491.14
2019-04-05T18:20:46.838Z,100494.41
2019-04-05T18:23:24.884Z,100499.08
2019-04-05T18:25:44.991Z,100499.44
2019-04-05T18:28:13.201Z,100494.98
2019-04-05T18:30:42.390Z,100498.45
2019-04-05T18:33:10.598Z,100510.80
2019-04-05T18:35:38.812Z,100521.13
2019-04-05T18:38:07.031Z,100518.57
2019-04-05T18:40:40.201Z,100519.09
2019-04-05T18:43:05.183Z,100526.84
2019-04-05T18:45:33.739Z,100530.09
2019-04-05T18:48:01.998Z,100536.98
2019-04-05T18:50:30.205Z,100547.25
2019-04-05T18:52:58.428Z,100550.35
2019-04-05T18:55:26.643Z,100551.05
2019-04-05T18:57:54.856Z,100555.50
2019-04-05T19:00:23.060Z,100554.80
2019-04-05T19:02:51.520Z,100559.95
2019-04-05T19:05:19.734Z,100559.27
2019-04-05T19:07:47.938Z,100555.14
2019-04-05T19:10:16.162Z,100551.38
2019-04-05T19:12:44.474Z,100552.74
2019-04-05T19:15:12.759Z,100554.80
2019-04-05T19:17:40.961Z,100547.94
2019-04-05T19:20:09.182Z,100550.00
2019-04-05T19:22:37.394Z,100544.84
2019-04-05T19:25:07.052Z,100546.22
2019-04-05T19:27:35.255Z,100558.86
2019-04-05T19:50:06.781Z,100579.83
2019-04-05T19:52:34.999Z,100585.09
2019-04-05T19:55:03.211Z,100579.95
2019-04-05T19:57:31.481Z,100579.60
2019-04-05T19:59:59.641Z,100584.22
2019-04-05T20:02:27.856Z,100581.10
2019-04-05T20:04:56.060Z,100585.03
2019-04-05T20:07:24.278Z,100588.45
2019-04-05T20:09:52.481Z,100592.04
2019-04-05T20:12:20.707Z,100597.52
2019-04-05T20:14:48.910Z,100597.69
2019-04-05T20:17:17.110Z,100595.30
2019-04-05T20:19:45.324Z,100599.23
2019-04-05T20:22:13.607Z,100597.69
2019-04-05T20:24:41.835Z,100598.72
2019-04-05T20:27:10.877Z,100597.34
2019-04-05T20:29:39.090Z,100603.16
2019-04-05T20:32:07.291Z,100606.77
2019-04-05T20:34:35.512Z,100600.09
2019-04-05T20:37:03.717Z,100604.53
2019-04-05T20:39:32.171Z,100602.95
2019-04-05T20:42:00.383Z,100615.77
2019-04-05T20:44:28.591Z,100610.58
2019-04-05T20:46:56.810Z,100612.27
2019-04-05T20:49:25.021Z,100613.30
2019-04-05T20:51:53.256Z,100615.69
2019-04-05T20:54:24.786Z,100617.70
2019-04-05T20:56:51.406Z,100615.29
2019-04-05T20:59:19.617Z,100618.70
2019-04-05T21:01:47.830Z,100621.77
2019-04-05T21:04:16.067Z,100621.95
2019-04-05T21:06:44.289Z,100626.20
2019-04-05T21:09:12.571Z,100627.70
2019-04-05T21:11:40.822Z,100627.17
2019-04-05T21:14:08.992Z,100628.70
2019-04-05T21:16:37.196Z,100634.67
2019-04-05T21:19:05.427Z,100637.53
2019-04-05T21:21:33.629Z,100636.98
2019-04-05T21:24:01.853Z,100643.23
2019-04-05T21:26:30.066Z,100646.62
2019-04-05T21:28:58.275Z,100648.95
2019-04-05T21:31:26.491Z,100645.17
2019-04-05T21:33:54.699Z,100653.87
2019-04-05T21:36:22.915Z,100662.45
2019-04-05T21:38:51.129Z,100658.44
2019-04-05T21:41:19.362Z,100660.91
2019-04-05T21:43:47.571Z,100660.60
2019-04-05T21:46:15.788Z,100663.74
2019-04-05T21:48:45.610Z,100662.05
2019-04-05T21:51:13.831Z,100673.70
2019-04-05T21:53:42.040Z,100673.36
2019-04-05T21:56:10.276Z,100673.70
2019-04-05T21:58:38.487Z,100677.46
2019-04-05T22:01:08.420Z,100679.50
2019-04-05T22:03:36.632Z,100675.58
2019-04-05T22:06:05.010Z,100682.30
2019-04-05T22:08:33.233Z,100687.09
2019-04-05T22:11:02.606Z,100685.75
2019-04-05T22:13:30.830Z,100686.49
2019-04-05T22:15:59.030Z,100690.80
2019-04-05T22:18:27.321Z,100686.20
2019-04-05T22:20:55.521Z,100686.59
2019-04-05T22:23:23.738Z,100684.89
2019-04-05T22:25:51.938Z,100688.72
2019-04-05T22:28:20.147Z,100694.03
2019-04-05T22:30:48.363Z,100691.47
2019-04-05T22:33:16.568Z,100693.53
2019-04-05T22:35:44.801Z,100691.14
2019-04-05T22:38:13.002Z,100695.76
2019-04-05T22:40:41.217Z,100693.88
2019-04-05T22:43:09.427Z,100697.64
2019-04-05T22:45:37.645Z,100690.45
2019-04-05T22:48:05.856Z,100689.42
2019-04-05T22:50:34.074Z,100702.44
2019-04-05T22:53:02.275Z,100697.31
2019-04-05T22:55:30.504Z,100699.36
2019-04-05T22:57:58.706Z,100705.86
2019-04-05T23:00:26.924Z,100699.19
2019-04-05T23:02:55.143Z,100709.63
2019-04-05T23:05:23.356Z,100706.89
2019-04-05T23:07:51.568Z,100700.42
2019-04-05T23:10:19.776Z,100696.16
2019-04-05T23:12:48.012Z,100695.98
2019-04-05T23:15:16.214Z,100694.62
2019-04-05T23:17:44.432Z,100699.41
2019-04-05T23:20:12.640Z,100698.05
2019-04-05T23:22:40.866Z,100700.05
2019-04-05T23:25:09.079Z,100700.73
2019-04-05T23:27:37.313Z,100704.14
2019-04-05T23:30:09.067Z,100702.76
2019-04-05T23:32:37.535Z,100698.09
2019-04-05T23:35:06.618Z,100703.88
2019-04-05T23:37:34.826Z,100703.99
2019-04-05T23:40:03.325Z,100703.12
2019-04-05T23:42:31.529Z,100704.98
2019-04-05T23:44:59.736Z,100700.80
2019-04-05T23:47:27.978Z,100710.30
2019-04-05T23:49:56.161Z,100707.30
2019-04-05T23:52:24.551Z,100696.47
2019-04-05T23:54:52.758Z,100698.77
2019-04-05T23:57:20.985Z,100699.38
2019-04-05T23:59:49.903Z,100701.06
